Terminal Aerodrome Forecast
Issued by NWS

Home | Current Version | Previous Version | Text Only | Print | Product List | Glossary On
Versions: 1 2 3 4 5 6 7 8 9 10 11 12 13 14 15 16 17 18
000
FTUS45 KGJT 232338
TAFEGE
TAF
KEGE 232338Z 2400/2424 05010KT P6SM VCSH OVC100
     FM240200 21005KT P6SM FEW060 OVC090
     FM240500 VRB03KT P6SM FEW060 SCT070
     FM241800 23010KT P6SM SCT080
     FM242100 23012G21KT P6SM FEW080 SCT090
      AMD LTD TO CLD VIS AND WIND 2401/2413=

USA.gov is the U.S. government's official web portal to all federal, state and local government web resources and services.